createdAt,value
2023-07-11T00:04:42.114Z,54.40
2023-07-11T00:09:47.958Z,53.40
2023-07-11T00:14:50.165Z,53.30
2023-07-11T00:19:55.877Z,53.40
2023-07-11T00:24:57.469Z,53.40
2023-07-11T00:29:59.124Z,53.50
2023-07-11T00:35:01.015Z,53.50
2023-07-11T00:40:02.788Z,53.50
2023-07-11T00:45:05.258Z,53.60
2023-07-11T00:50:08.169Z,53.60
2023-07-11T00:55:11.460Z,53.70
2023-07-11T01:00:13.784Z,53.70
2023-07-11T01:05:15.505Z,53.70
2023-07-11T01:10:17.219Z,53.80
2023-07-11T01:15:18.803Z,53.90
2023-07-11T01:20:24.053Z,53.90
2023-07-11T01:25:25.697Z,54.00
2023-07-11T01:30:27.340Z,54.00
2023-07-11T01:35:28.990Z,54.00
2023-07-11T01:40:30.598Z,54.00
2023-07-11T01:45:32.260Z,54.10
2023-07-11T01:50:34.046Z,54.10
2023-07-11T01:55:35.707Z,54.20
2023-07-11T02:00:38.180Z,54.20
2023-07-11T02:05:40.669Z,54.30
2023-07-11T02:10:42.747Z,54.30
2023-07-11T02:15:44.545Z,54.30
2023-07-11T02:20:46.261Z,54.40
2023-07-11T02:25:47.869Z,54.30
2023-07-11T02:30:49.612Z,54.40
2023-07-11T02:35:51.422Z,54.50
2023-07-11T02:40:53.073Z,54.40
2023-07-11T02:45:55.711Z,54.30
2023-07-11T02:50:57.566Z,54.40
2023-07-11T02:55:59.178Z,54.40
2023-07-11T03:01:01.766Z,54.40
2023-07-11T03:06:04.304Z,54.40
2023-07-11T03:11:06.250Z,54.40
2023-07-11T03:16:08.130Z,54.40
2023-07-11T03:21:10.012Z,54.50
2023-07-11T03:26:11.832Z,54.40
2023-07-11T03:31:13.570Z,54.50
2023-07-11T03:36:15.424Z,54.50
2023-07-11T03:41:17.533Z,54.50
2023-07-11T03:46:19.451Z,54.50
2023-07-11T03:51:21.410Z,54.50
2023-07-11T03:56:23.006Z,54.50
2023-07-11T04:01:24.649Z,54.50
2023-07-11T04:06:26.461Z,54.50
2023-07-11T04:11:28.174Z,54.40
2023-07-11T04:16:29.876Z,54.50
2023-07-11T04:21:31.721Z,54.50
2023-07-11T04:26:33.400Z,54.50
2023-07-11T04:31:35.148Z,54.50
2023-07-11T04:36:36.914Z,54.50
2023-07-11T04:41:38.573Z,54.50
2023-07-11T04:51:55.569Z,54.60
2023-07-11T04:56:58.210Z,54.60
2023-07-11T05:02:00.240Z,54.60
2023-07-11T05:07:02.154Z,54.60
2023-07-11T05:12:04.032Z,54.70
2023-07-11T05:17:05.738Z,54.70
2023-07-11T05:22:08.116Z,54.70
2023-07-11T05:27:09.723Z,54.70
2023-07-11T05:32:11.678Z,54.80
2023-07-11T05:37:13.395Z,54.90
2023-07-11T05:42:15.032Z,55.50
2023-07-11T05:47:16.656Z,55.50
2023-07-11T05:52:18.255Z,56.00
2023-07-11T05:57:19.950Z,55.70
2023-07-11T06:02:21.717Z,57.50
2023-07-11T06:07:24.098Z,57.50
2023-07-11T06:12:25.802Z,57.30
2023-07-11T06:17:28.649Z,56.90
2023-07-11T06:22:30.294Z,57.00
2023-07-11T06:27:31.889Z,60.00
2023-07-11T06:32:33.620Z,59.60
2023-07-11T06:37:35.426Z,59.50
2023-07-11T06:42:37.140Z,59.60
2023-07-11T06:47:38.900Z,59.70
2023-07-11T06:52:40.777Z,59.50
2023-07-11T06:57:42.941Z,59.50
2023-07-11T07:02:45.230Z,58.60
2023-07-11T07:07:46.893Z,58.50
2023-07-11T07:12:48.552Z,58.50
2023-07-11T07:17:50.298Z,58.50
2023-07-11T07:22:52.058Z,58.60
2023-07-11T07:27:53.818Z,58.70
2023-07-11T07:32:55.518Z,58.40
2023-07-11T07:37:57.142Z,58.30
2023-07-11T07:42:58.838Z,58.30
2023-07-11T07:48:00.622Z,58.30
2023-07-11T07:53:02.548Z,58.00
2023-07-11T07:58:04.166Z,57.90
2023-07-11T08:03:06.042Z,57.80
2023-07-11T08:08:07.691Z,57.70
2023-07-11T08:13:09.605Z,57.60
2023-07-11T08:18:11.863Z,57.50
2023-07-11T08:23:13.519Z,57.40
2023-07-11T08:28:15.959Z,57.40
2023-07-11T08:33:17.555Z,58.40
2023-07-11T08:38:19.157Z,57.30
2023-07-11T08:43:24.709Z,57.20
2023-07-11T08:48:39.227Z,57.10
2023-07-11T08:53:44.090Z,57.00
2023-07-11T08:58:46.778Z,56.90
2023-07-11T09:03:49.042Z,56.90
2023-07-11T09:08:55.357Z,56.80
2023-07-11T09:14:16.029Z,56.90
2023-07-11T09:19:27.037Z,56.90
2023-07-11T09:24:34.411Z,56.90
2023-07-11T09:29:36.157Z,57.00
2023-07-11T09:34:38.749Z,56.90
2023-07-11T09:39:44.232Z,57.00
2023-07-11T09:45:15.023Z,56.90
2023-07-11T09:50:40.898Z,56.90
2023-07-11T09:55:47.350Z,56.70
2023-07-11T10:00:52.675Z,56.50
2023-07-11T10:05:54.349Z,56.20
2023-07-11T10:11:01.843Z,56.00
2023-07-11T10:16:05.599Z,55.90
2023-07-11T10:21:19.494Z,55.70
2023-07-11T10:26:23.372Z,55.60
2023-07-11T10:31:30.949Z,55.50
2023-07-11T10:36:47.294Z,55.50
2023-07-11T10:41:58.652Z,55.40
2023-07-11T10:47:00.315Z,55.20
2023-07-11T10:52:02.428Z,55.10
2023-07-11T10:57:11.088Z,55.20
2023-07-11T11:02:18.086Z,55.10
2023-07-11T11:07:35.905Z,55.10
2023-07-11T11:12:48.535Z,55.20
2023-07-11T11:18:09.178Z,55.10
2023-07-11T11:23:23.053Z,55.20
2023-07-11T11:28:30.566Z,55.20
2023-07-11T11:33:45.831Z,55.20
2023-07-11T11:38:59.108Z,56.30
2023-07-11T11:49:36.123Z,55.40
2023-07-11T11:54:36.093Z,55.40
2023-07-11T11:59:38.774Z,55.50
2023-07-11T12:04:53.629Z,55.40
2023-07-11T12:09:57.432Z,55.50
2023-07-11T12:15:00.566Z,55.50
2023-07-11T12:20:02.733Z,55.40
2023-07-11T12:25:07.673Z,55.50
2023-07-11T12:30:15.267Z,55.50
2023-07-11T12:35:17.218Z,55.50
2023-07-11T12:40:18.860Z,55.60
2023-07-11T12:45:24.987Z,55.60
2023-07-11T12:50:29.726Z,55.60
2023-07-11T12:55:31.579Z,55.60
2023-07-11T13:00:36.018Z,55.60
2023-07-11T13:05:37.726Z,55.70
2023-07-11T13:10:39.450Z,55.70
2023-07-11T13:15:41.915Z,55.70
2023-07-11T13:20:43.610Z,55.70
2023-07-11T13:25:45.194Z,55.80
2023-07-11T13:30:54.828Z,55.80
2023-07-11T13:36:08.187Z,55.80
2023-07-11T13:41:17.251Z,55.70
2023-07-11T13:46:19.211Z,55.90
2023-07-11T13:51:24.972Z,55.80
2023-07-11T13:56:26.753Z,55.90
2023-07-11T14:01:35.497Z,55.90
2023-07-11T14:06:37.433Z,56.00
2023-07-11T14:11:39.411Z,56.10
2023-07-11T14:16:41.682Z,56.10
2023-07-11T14:21:43.308Z,56.10
2023-07-11T14:26:45.275Z,56.20
2023-07-11T14:31:48.567Z,56.10
2023-07-11T14:36:51.146Z,56.20
2023-07-11T14:41:52.832Z,56.30
2023-07-11T14:46:54.997Z,56.20
2023-07-11T14:51:56.806Z,56.30
2023-07-11T14:57:15.457Z,56.40
2023-07-11T15:02:22.704Z,56.50
2023-07-11T15:17:33.761Z,56.60
2023-07-11T15:22:35.536Z,56.60
2023-07-11T15:27:37.183Z,56.70
2023-07-11T15:32:38.948Z,56.80
2023-07-11T15:37:40.637Z,56.90
2023-07-11T15:42:42.619Z,56.80
2023-07-11T15:47:44.358Z,57.00
2023-07-11T15:52:46.130Z,57.00
2023-07-11T15:57:48.017Z,57.00
2023-07-11T16:02:50.174Z,57.00
2023-07-11T16:07:51.972Z,57.10
2023-07-11T16:12:53.762Z,57.10
2023-07-11T16:17:55.525Z,57.10
2023-07-11T16:22:57.205Z,57.10
2023-07-11T16:28:00.207Z,57.10
2023-07-11T16:33:02.771Z,57.20
2023-07-11T16:38:06.401Z,57.20
2023-07-11T16:43:09.685Z,57.30
2023-07-11T16:48:12.788Z,57.30
2023-07-11T16:53:17.987Z,57.40
2023-07-11T16:58:21.117Z,57.30
2023-07-11T17:03:23.333Z,57.30
2023-07-11T17:08:27.508Z,57.40
2023-07-11T17:13:30.046Z,57.40
2023-07-11T17:18:32.210Z,57.40
2023-07-11T17:23:34.040Z,57.50
2023-07-11T17:28:35.649Z,57.40
2023-07-11T17:33:37.394Z,58.50
2023-07-11T17:38:39.011Z,57.50
2023-07-11T17:43:42.410Z,57.50
2023-07-11T17:48:48.382Z,57.50
2023-07-11T17:53:50.200Z,57.50
2023-07-11T17:58:53.450Z,57.50
2023-07-11T18:03:55.211Z,57.60
2023-07-11T18:08:56.953Z,57.60
2023-07-11T18:13:58.642Z,57.70
2023-07-11T18:19:00.821Z,57.70
2023-07-11T18:24:02.698Z,57.70
2023-07-11T18:29:04.299Z,57.80
2023-07-11T18:34:05.934Z,57.80
2023-07-11T18:39:09.538Z,57.80
2023-07-11T18:44:11.278Z,57.90
2023-07-11T18:49:13.305Z,57.90
2023-07-11T18:54:14.961Z,57.90
2023-07-11T18:59:16.622Z,57.90
2023-07-11T19:04:18.274Z,57.90
2023-07-11T19:09:19.866Z,57.90
2023-07-11T19:14:21.470Z,57.90
2023-07-11T19:19:28.244Z,57.90
2023-07-11T19:24:29.859Z,57.90
2023-07-11T19:29:31.626Z,57.90
2023-07-11T19:34:33.393Z,57.90
2023-07-11T19:39:34.989Z,57.90
2023-07-11T19:44:36.589Z,58.00
2023-07-11T19:49:38.805Z,58.00
2023-07-11T19:54:40.470Z,58.10
2023-07-11T19:59:42.153Z,58.10
2023-07-11T20:04:44.470Z,58.10
2023-07-11T20:09:46.146Z,58.10
2023-07-11T20:14:50.067Z,58.00
2023-07-11T20:19:52.018Z,58.10
2023-07-11T20:24:53.701Z,58.10
2023-07-11T20:29:55.303Z,58.20
2023-07-11T20:34:57.083Z,58.20
2023-07-11T20:39:58.684Z,58.30
2023-07-11T20:45:00.285Z,58.40
2023-07-11T20:50:02.003Z,58.40
2023-07-11T20:55:03.908Z,58.40
2023-07-11T21:00:31.973Z,58.40
2023-07-11T21:05:36.149Z,58.60
2023-07-11T21:10:39.556Z,58.60
2023-07-11T21:15:42.926Z,58.60
2023-07-11T21:20:45.914Z,58.70
2023-07-11T21:25:47.793Z,58.70
2023-07-11T21:30:50.520Z,58.90
2023-07-11T21:35:53.897Z,58.90
2023-07-11T21:40:57.073Z,58.80
2023-07-11T21:45:58.882Z,58.90
2023-07-11T21:51:00.858Z,58.90
2023-07-11T21:56:02.869Z,59.10
2023-07-11T22:01:05.141Z,59.10
2023-07-11T22:06:23.661Z,59.10
2023-07-11T22:11:25.369Z,59.10
2023-07-11T22:16:28.572Z,59.10
2023-07-11T22:21:30.243Z,59.30
2023-07-11T22:26:32.421Z,59.10
2023-07-11T22:31:34.269Z,59.20
2023-07-11T22:36:35.997Z,59.10
2023-07-11T22:41:37.614Z,59.10
2023-07-11T22:46:39.253Z,59.10
2023-07-11T22:51:41.278Z,59.10
2023-07-11T22:56:43.290Z,59.10
2023-07-11T23:01:44.930Z,59.10
2023-07-11T23:06:46.714Z,59.10
2023-07-11T23:11:48.649Z,59.00
2023-07-11T23:16:50.505Z,58.90
2023-07-11T23:21:52.140Z,58.90
2023-07-11T23:26:53.750Z,58.90
2023-07-11T23:31:55.342Z,58.80
2023-07-11T23:36:57.139Z,58.90
2023-07-11T23:41:58.784Z,58.80
2023-07-11T23:47:00.469Z,58.80
2023-07-11T23:52:02.400Z,58.70
2023-07-11T23:57:04.042Z,58.70
